PWSweather.com
Personal Weather Stations
Station Observations
KTXROWLE6
Ravens Nest, Rowlett, TX 75089

Ravens NestRowlett, TX 75089

Lat: 32.93105, Lon: -96.57368

Elevation: 556

Station Type: Davis Vantage Pro2 6152

http://rowlett.ws

High Low Average
Temperature 81.8°F27.7°C 62.0°F16.7°C 73.4°F23.0°C
Dew Point 69.4°F20.8°C 58.0°F14.4°C 65.5°F18.6°C
Winds 11.5 mph 18.5 kmh Calm Calm 4.0 mph S6.4 kmh S
Wind Gusts 25.0 mph40.2 kmh -- 11.0 mph17.7 kmh
Humidity 92% 64% 77%
Pressure 30.06 in1017.9 mb 29.84 in1010.5 mb -
Precipitation 2.09 in53.1 mm - -
Hour Temp Dew Point Humidity Winds Wind Gusts Pressure Precip Precip Rate Daily Precip Total
12:00 AM 76.0°F24.4°C 65.9°F18.8°C 71% 3.7 mph SSW6.0 kmh SSW 11.0 mph17.7 kmh 29.84 in1010.5 mb 0.00 in0.0 mm 0.00 in0.0 mm 0.01 in0.3 mm
12:05 AM 75.9°F24.4°C 65.8°F18.8°C 71% 4.7 mph SSW7.6 kmh SSW 17.0 mph27.4 kmh 29.84 in1010.5 mb 0.00 in0.0 mm 0.00 in0.0 mm 0.00 in0.0 mm
12:10 AM 75.9°F24.4°C 65.8°F18.8°C 71% 5.4 mph SSW8.7 kmh SSW 17.0 mph27.4 kmh 29.84 in1010.5 mb 0.00 in0.0 mm 0.00 in0.0 mm 0.00 in0.0 mm
12:15 AM 75.9°F24.4°C 65.8°F18.8°C 71% 5.2 mph SSW8.4 kmh SSW 12.0 mph19.3 kmh 29.84 in1010.5 mb 0.00 in0.0 mm 0.00 in0.0 mm 0.00 in0.0 mm
12:20 AM 76.0°F24.4°C 65.9°F18.8°C 71% 5.3 mph SSW8.5 kmh SSW 14.0 mph22.5 kmh 29.84 in1010.5 mb 0.00 in0.0 mm 0.00 in0.0 mm 0.00 in0.0 mm
12:25 AM 76.0°F24.4°C 65.9°F18.8°C 71% 4.9 mph SSW7.9 kmh SSW 14.0 mph22.5 kmh 29.84 in1010.5 mb 0.00 in0.0 mm 0.00 in0.0 mm 0.00 in0.0 mm
12:30 AM 76.0°F24.4°C 65.9°F18.8°C 71% 5.3 mph SSW8.5 kmh SSW 12.0 mph19.3 kmh 29.84 in1010.5 mb 0.00 in0.0 mm 0.00 in0.0 mm 0.00 in0.0 mm
12:35 AM 76.0°F24.4°C 65.9°F18.8°C 71% 4.8 mph SSW7.7 kmh SSW 11.0 mph17.7 kmh 29.84 in1010.5 mb 0.00 in0.0 mm 0.00 in0.0 mm 0.00 in0.0 mm
12:40 AM 75.8°F24.3°C 65.7°F18.7°C 71% 4.2 mph SSW6.8 kmh SSW 10.0 mph16.1 kmh 29.84 in1010.5 mb 0.00 in0.0 mm 0.00 in0.0 mm 0.00 in0.0 mm
12:45 AM 75.7°F24.3°C 66.0°F18.9°C 72% 3.5 mph SW5.6 kmh SW 14.0 mph22.5 kmh 29.85 in1010.8 mb 0.00 in0.0 mm 0.00 in0.0 mm 0.00 in0.0 mm
12:50 AM 75.7°F24.3°C 66.0°F18.9°C 72% 4.3 mph SW6.9 kmh SW 14.0 mph22.5 kmh 29.85 in1010.8 mb 0.00 in0.0 mm 0.00 in0.0 mm 0.00 in0.0 mm
12:55 AM 75.8°F24.3°C 66.1°F18.9°C 72% 5.7 mph SW9.2 kmh SW 14.0 mph22.5 kmh 29.85 in1010.8 mb 0.00 in0.0 mm 0.00 in0.0 mm 0.00 in0.0 mm
01:00 AM 75.9°F24.4°C 66.2°F19.0°C 72% 5.1 mph SSW8.2 kmh SSW 11.0 mph17.7 kmh 29.85 in1010.8 mb 0.00 in0.0 mm 0.00 in0.0 mm 0.00 in0.0 mm
01:05 AM 75.9°F24.4°C 66.2°F19.0°C 72% 3.9 mph SW6.3 kmh SW 12.0 mph19.3 kmh 29.85 in1010.8 mb 0.00 in0.0 mm 0.00 in0.0 mm 0.00 in0.0 mm
01:10 AM 75.8°F24.3°C 66.1°F18.9°C 72% 4.5 mph SW7.2 kmh SW 12.0 mph19.3 kmh 29.85 in1010.8 mb 0.00 in0.0 mm 0.00 in0.0 mm 0.00 in0.0 mm
01:15 AM 75.9°F24.4°C 66.2°F19.0°C 72% 4.6 mph SSW7.4 kmh SSW 15.0 mph24.1 kmh 29.85 in1010.8 mb 0.00 in0.0 mm 0.00 in0.0 mm 0.00 in0.0 mm
01:20 AM 75.9°F24.4°C 66.2°F19.0°C 72% 5.0 mph SW8.0 kmh SW 15.0 mph24.1 kmh 29.85 in1010.8 mb 0.00 in0.0 mm 0.00 in0.0 mm 0.00 in0.0 mm
01:25 AM 75.9°F24.4°C 66.2°F19.0°C 72% 6.1 mph SW9.8 kmh SW 15.0 mph24.1 kmh 29.85 in1010.8 mb 0.00 in0.0 mm 0.00 in0.0 mm 0.00 in0.0 mm
01:30 AM 75.8°F24.3°C 66.1°F18.9°C 72% 4.2 mph SW6.8 kmh SW 15.0 mph24.1 kmh 29.85 in1010.8 mb 0.00 in0.0 mm 0.00 in0.0 mm 0.00 in0.0 mm
01:35 AM 75.7°F24.3°C 66.0°F18.9°C 72% 5.3 mph SW8.5 kmh SW 13.0 mph20.9 kmh 29.85 in1010.8 mb 0.00 in0.0 mm 0.00 in0.0 mm 0.00 in0.0 mm
01:40 AM 75.6°F24.2°C 65.9°F18.8°C 72% 4.0 mph SW6.4 kmh SW 13.0 mph20.9 kmh 29.86 in1011.2 mb 0.00 in0.0 mm 0.00 in0.0 mm 0.00 in0.0 mm
01:45 AM 75.4°F24.1°C 66.1°F18.9°C 73% 4.0 mph SW6.4 kmh SW 10.0 mph16.1 kmh 29.86 in1011.2 mb 0.00 in0.0 mm 0.00 in0.0 mm 0.00 in0.0 mm
01:50 AM 75.4°F24.1°C 66.1°F18.9°C 73% 3.5 mph SW5.6 kmh SW 9.0 mph14.5 kmh 29.85 in1010.8 mb 0.00 in0.0 mm 0.00 in0.0 mm 0.00 in0.0 mm
01:55 AM 75.3°F24.1°C 66.0°F18.9°C 73% 4.5 mph SW7.2 kmh SW 10.0 mph16.1 kmh 29.85 in1010.8 mb 0.00 in0.0 mm 0.00 in0.0 mm 0.00 in0.0 mm
02:00 AM 75.2°F24.0°C 65.9°F18.8°C 73% 4.1 mph SW6.6 kmh SW 10.0 mph16.1 kmh 29.85 in1010.8 mb 0.00 in0.0 mm 0.00 in0.0 mm 0.00 in0.0 mm
02:05 AM 75.1°F23.9°C 65.8°F18.8°C 73% 3.8 mph SW6.1 kmh SW 9.0 mph14.5 kmh 29.85 in1010.8 mb 0.00 in0.0 mm 0.00 in0.0 mm 0.00 in0.0 mm
02:10 AM 75.0°F23.9°C 65.7°F18.7°C 73% 3.8 mph SW6.1 kmh SW 9.0 mph14.5 kmh 29.84 in1010.5 mb 0.00 in0.0 mm 0.00 in0.0 mm 0.00 in0.0 mm
02:15 AM 74.8°F23.8°C 65.9°F18.8°C 74% 3.0 mph SW4.8 kmh SW 9.0 mph14.5 kmh 29.84 in1010.5 mb 0.00 in0.0 mm 0.00 in0.0 mm 0.00 in0.0 mm
02:20 AM 74.8°F23.8°C 65.9°F18.8°C 74% 3.4 mph SW5.5 kmh SW 9.0 mph14.5 kmh 29.84 in1010.5 mb 0.00 in0.0 mm 0.00 in0.0 mm 0.00 in0.0 mm
02:25 AM 74.7°F23.7°C 65.8°F18.8°C 74% 3.9 mph SW6.3 kmh SW 10.0 mph16.1 kmh 29.85 in1010.8 mb 0.00 in0.0 mm 0.00 in0.0 mm 0.00 in0.0 mm
02:30 AM 74.5°F23.6°C 65.7°F18.7°C 74% 3.4 mph SW5.5 kmh SW 10.0 mph16.1 kmh 29.85 in1010.8 mb 0.00 in0.0 mm 0.00 in0.0 mm 0.00 in0.0 mm
02:35 AM 74.5°F23.6°C 65.7°F18.7°C 74% 3.2 mph SSW5.1 kmh SSW 11.0 mph17.7 kmh 29.84 in1010.5 mb 0.00 in0.0 mm 0.00 in0.0 mm 0.00 in0.0 mm
02:40 AM 74.5°F23.6°C 66.0°F18.9°C 75% 4.1 mph SW6.6 kmh SW 11.0 mph17.7 kmh 29.84 in1010.5 mb 0.00 in0.0 mm 0.00 in0.0 mm 0.00 in0.0 mm
02:45 AM 74.5°F23.6°C 66.0°F18.9°C 75% 4.8 mph SW7.7 kmh SW 12.0 mph19.3 kmh 29.84 in1010.5 mb 0.00 in0.0 mm 0.00 in0.0 mm 0.00 in0.0 mm
02:50 AM 74.5°F23.6°C 66.0°F18.9°C 75% 4.7 mph SW7.6 kmh SW 12.0 mph19.3 kmh 29.84 in1010.5 mb 0.00 in0.0 mm 0.00 in0.0 mm 0.00 in0.0 mm
02:55 AM 74.4°F23.6°C 65.9°F18.8°C 75% 4.9 mph SSW7.9 kmh SSW 10.0 mph16.1 kmh 29.84 in1010.5 mb 0.00 in0.0 mm 0.00 in0.0 mm 0.00 in0.0 mm
03:00 AM 74.3°F23.5°C 65.8°F18.8°C 75% 4.1 mph SSW6.6 kmh SSW 8.0 mph12.9 kmh 29.84 in1010.5 mb 0.00 in0.0 mm 0.00 in0.0 mm 0.00 in0.0 mm
03:05 AM 74.2°F23.4°C 65.8°F18.8°C 75% 3.8 mph SSW6.1 kmh SSW 7.0 mph11.3 kmh 29.84 in1010.5 mb 0.00 in0.0 mm 0.00 in0.0 mm 0.00 in0.0 mm
03:10 AM 74.1°F23.4°C 65.7°F18.7°C 75% 3.1 mph SSW5.0 kmh SSW 7.0 mph11.3 kmh 29.84 in1010.5 mb 0.00 in0.0 mm 0.00 in0.0 mm 0.00 in0.0 mm
03:15 AM 74.0°F23.3°C 65.6°F18.7°C 75% 3.7 mph SSW6.0 kmh SSW 7.0 mph11.3 kmh 29.84 in1010.5 mb 0.00 in0.0 mm 0.00 in0.0 mm 0.00 in0.0 mm
03:20 AM 73.8°F23.2°C 65.7°F18.7°C 76% 3.4 mph SSW5.5 kmh SSW 8.0 mph12.9 kmh 29.84 in1010.5 mb 0.00 in0.0 mm 0.00 in0.0 mm 0.00 in0.0 mm
03:25 AM 73.7°F23.2°C 65.7°F18.7°C 76% 4.1 mph SSW6.6 kmh SSW 8.0 mph12.9 kmh 29.84 in1010.5 mb 0.00 in0.0 mm 0.00 in0.0 mm 0.00 in0.0 mm
03:30 AM 73.6°F23.1°C 65.6°F18.7°C 76% 3.4 mph SSW5.5 kmh SSW 8.0 mph12.9 kmh 29.84 in1010.5 mb 0.00 in0.0 mm 0.00 in0.0 mm 0.00 in0.0 mm
03:35 AM 73.5°F23.1°C 65.8°F18.8°C 77% 4.4 mph SSW7.1 kmh SSW 10.0 mph16.1 kmh 29.84 in1010.5 mb 0.00 in0.0 mm 0.00 in0.0 mm 0.00 in0.0 mm
03:40 AM 73.3°F22.9°C 65.6°F18.7°C 77% 3.2 mph SSW5.1 kmh SSW 10.0 mph16.1 kmh 29.84 in1010.5 mb 0.00 in0.0 mm 0.00 in0.0 mm 0.00 in0.0 mm
03:45 AM 73.2°F22.9°C 65.5°F18.6°C 77% 3.5 mph SSW5.6 kmh SSW 7.0 mph11.3 kmh 29.84 in1010.5 mb 0.00 in0.0 mm 0.00 in0.0 mm 0.00 in0.0 mm
03:50 AM 73.0°F22.8°C 65.7°F18.7°C 78% 4.5 mph SSW7.2 kmh SSW 9.0 mph14.5 kmh 29.84 in1010.5 mb 0.00 in0.0 mm 0.00 in0.0 mm 0.00 in0.0 mm
03:55 AM 73.0°F22.8°C 65.7°F18.7°C 78% 4.3 mph SSW6.9 kmh SSW 9.0 mph14.5 kmh 29.84 in1010.5 mb 0.00 in0.0 mm 0.00 in0.0 mm 0.00 in0.0 mm
04:00 AM 72.9°F22.7°C 65.6°F18.7°C 78% 4.3 mph SSW6.9 kmh SSW 10.0 mph16.1 kmh 29.84 in1010.5 mb 0.00 in0.0 mm 0.00 in0.0 mm 0.00 in0.0 mm
04:05 AM 72.8°F22.7°C 65.9°F18.8°C 79% 3.6 mph SSW5.8 kmh SSW 10.0 mph16.1 kmh 29.84 in1010.5 mb 0.00 in0.0 mm 0.00 in0.0 mm 0.00 in0.0 mm
04:10 AM 72.8°F22.7°C 65.9°F18.8°C 79% 4.0 mph SW6.4 kmh SW 9.0 mph14.5 kmh 29.84 in1010.5 mb 0.00 in0.0 mm 0.00 in0.0 mm 0.00 in0.0 mm
04:15 AM 72.8°F22.7°C 65.9°F18.8°C 79% 3.6 mph SSW5.8 kmh SSW 9.0 mph14.5 kmh 29.84 in1010.5 mb 0.00 in0.0 mm 0.00 in0.0 mm 0.00 in0.0 mm
04:20 AM 72.8°F22.7°C 65.9°F18.8°C 79% 4.3 mph SSW6.9 kmh SSW 8.0 mph12.9 kmh 29.84 in1010.5 mb 0.00 in0.0 mm 0.00 in0.0 mm 0.00 in0.0 mm
04:25 AM 72.7°F22.6°C 65.8°F18.8°C 79% 4.6 mph SSW7.4 kmh SSW 10.0 mph16.1 kmh 29.84 in1010.5 mb 0.00 in0.0 mm 0.00 in0.0 mm 0.00 in0.0 mm
04:30 AM 72.6°F22.6°C 65.7°F18.7°C 79% 3.8 mph SSW6.1 kmh SSW 10.0 mph16.1 kmh 29.84 in1010.5 mb 0.00 in0.0 mm 0.00 in0.0 mm 0.00 in0.0 mm
04:35 AM 72.6°F22.6°C 65.7°F18.7°C 79% 3.6 mph SSW5.8 kmh SSW 8.0 mph12.9 kmh 29.84 in1010.5 mb 0.00 in0.0 mm 0.00 in0.0 mm 0.00 in0.0 mm
04:40 AM 72.5°F22.5°C 65.6°F18.7°C 79% 3.6 mph SSW5.8 kmh SSW 8.0 mph12.9 kmh 29.84 in1010.5 mb 0.00 in0.0 mm 0.00 in0.0 mm 0.00 in0.0 mm
04:45 AM 72.4°F22.4°C 65.9°F18.8°C 80% 4.0 mph SSW6.4 kmh SSW 10.0 mph16.1 kmh 29.84 in1010.5 mb 0.00 in0.0 mm 0.00 in0.0 mm 0.00 in0.0 mm
04:50 AM 72.3°F22.4°C 65.8°F18.8°C 80% 4.8 mph SSW7.7 kmh SSW 10.0 mph16.1 kmh 29.85 in1010.8 mb 0.00 in0.0 mm 0.00 in0.0 mm 0.00 in0.0 mm
04:55 AM 72.4°F22.4°C 65.9°F18.8°C 80% 3.6 mph SSW5.8 kmh SSW 9.0 mph14.5 kmh 29.85 in1010.8 mb 0.00 in0.0 mm 0.00 in0.0 mm 0.00 in0.0 mm
05:00 AM 72.4°F22.4°C 65.9°F18.8°C 80% 2.6 mph SSW4.2 kmh SSW 9.0 mph14.5 kmh 29.85 in1010.8 mb 0.00 in0.0 mm 0.00 in0.0 mm 0.00 in0.0 mm
05:05 AM 72.5°F22.5°C 66.0°F18.9°C 80% 3.1 mph SW5.0 kmh SW 6.0 mph9.7 kmh 29.85 in1010.8 mb 0.00 in0.0 mm 0.00 in0.0 mm 0.00 in0.0 mm
05:10 AM 72.5°F22.5°C 66.0°F18.9°C 80% 3.7 mph SSW6.0 kmh SSW 8.0 mph12.9 kmh 29.85 in1010.8 mb 0.00 in0.0 mm 0.00 in0.0 mm 0.00 in0.0 mm
05:15 AM 72.5°F22.5°C 66.3°F19.1°C 81% 3.7 mph SSW6.0 kmh SSW 8.0 mph12.9 kmh 29.85 in1010.8 mb 0.00 in0.0 mm 0.00 in0.0 mm 0.00 in0.0 mm
05:20 AM 72.4°F22.4°C 66.2°F19.0°C 81% 3.8 mph SSW6.1 kmh SSW 8.0 mph12.9 kmh 29.85 in1010.8 mb 0.00 in0.0 mm 0.00 in0.0 mm 0.00 in0.0 mm
05:25 AM 72.4°F22.4°C 66.2°F19.0°C 81% 2.8 mph SSW4.5 kmh SSW 8.0 mph12.9 kmh 29.86 in1011.2 mb 0.00 in0.0 mm 0.00 in0.0 mm 0.00 in0.0 mm
05:30 AM 72.4°F22.4°C 66.2°F19.0°C 81% 3.6 mph SSW5.8 kmh SSW 8.0 mph12.9 kmh 29.86 in1011.2 mb 0.00 in0.0 mm 0.00 in0.0 mm 0.00 in0.0 mm
05:35 AM 72.4°F22.4°C 66.2°F19.0°C 81% 3.7 mph SSW6.0 kmh SSW 9.0 mph14.5 kmh 29.86 in1011.2 mb 0.00 in0.0 mm 0.00 in0.0 mm 0.00 in0.0 mm
05:40 AM 72.3°F22.4°C 66.1°F18.9°C 81% 3.9 mph SSW6.3 kmh SSW 9.0 mph14.5 kmh 29.86 in1011.2 mb 0.00 in0.0 mm 0.00 in0.0 mm 0.00 in0.0 mm
05:45 AM 72.3°F22.4°C 66.1°F18.9°C 81% 3.4 mph SSW5.5 kmh SSW 7.0 mph11.3 kmh 29.86 in1011.2 mb 0.00 in0.0 mm 0.00 in0.0 mm 0.00 in0.0 mm
05:50 AM 72.3°F22.4°C 66.5°F19.2°C 82% 3.3 mph SSW5.3 kmh SSW 7.0 mph11.3 kmh 29.86 in1011.2 mb 0.00 in0.0 mm 0.00 in0.0 mm 0.00 in0.0 mm
05:55 AM 72.3°F22.4°C 66.5°F19.2°C 82% 2.9 mph SSW4.7 kmh SSW 7.0 mph11.3 kmh 29.87 in1011.5 mb 0.00 in0.0 mm 0.00 in0.0 mm 0.00 in0.0 mm
06:00 AM 72.3°F22.4°C 66.5°F19.2°C 82% 4.0 mph SSW6.4 kmh SSW 7.0 mph11.3 kmh 29.87 in1011.5 mb 0.00 in0.0 mm 0.00 in0.0 mm 0.00 in0.0 mm
06:05 AM 72.3°F22.4°C 66.5°F19.2°C 82% 3.2 mph SSW5.1 kmh SSW 7.0 mph11.3 kmh 29.87 in1011.5 mb 0.00 in0.0 mm 0.00 in0.0 mm 0.00 in0.0 mm
06:10 AM 72.2°F22.3°C 66.4°F19.1°C 82% 3.8 mph SSW6.1 kmh SSW 8.0 mph12.9 kmh 29.87 in1011.5 mb 0.00 in0.0 mm 0.00 in0.0 mm 0.00 in0.0 mm
06:15 AM 72.3°F22.4°C 66.5°F19.2°C 82% 3.1 mph SSW5.0 kmh SSW 8.0 mph12.9 kmh 29.88 in1011.9 mb 0.00 in0.0 mm 0.00 in0.0 mm 0.00 in0.0 mm
06:20 AM 72.3°F22.4°C 66.5°F19.2°C 82% 2.8 mph SSW4.5 kmh SSW 8.0 mph12.9 kmh 29.88 in1011.9 mb 0.00 in0.0 mm 0.00 in0.0 mm 0.00 in0.0 mm
06:25 AM 72.2°F22.3°C 66.4°F19.1°C 82% 3.1 mph SSW5.0 kmh SSW 8.0 mph12.9 kmh 29.88 in1011.9 mb 0.00 in0.0 mm 0.00 in0.0 mm 0.00 in0.0 mm
06:30 AM 72.2°F22.3°C 66.4°F19.1°C 82% 3.0 mph SW4.8 kmh SW 8.0 mph12.9 kmh 29.88 in1011.9 mb 0.00 in0.0 mm 0.00 in0.0 mm 0.00 in0.0 mm
06:35 AM 72.1°F22.3°C 66.6°F19.2°C 83% 4.1 mph SSW6.6 kmh SSW 8.0 mph12.9 kmh 29.88 in1011.9 mb 0.00 in0.0 mm 0.00 in0.0 mm 0.00 in0.0 mm
06:40 AM 72.2°F22.3°C 66.7°F19.3°C 83% 3.3 mph SSW5.3 kmh SSW 8.0 mph12.9 kmh 29.88 in1011.9 mb 0.00 in0.0 mm 0.00 in0.0 mm 0.00 in0.0 mm
06:45 AM 72.2°F22.3°C 66.7°F19.3°C 83% 2.9 mph SW4.7 kmh SW 8.0 mph12.9 kmh 29.89 in1012.2 mb 0.00 in0.0 mm 0.00 in0.0 mm 0.00 in0.0 mm
06:50 AM 72.2°F22.3°C 66.7°F19.3°C 83% 2.5 mph SW4.0 kmh SW 7.0 mph11.3 kmh 29.89 in1012.2 mb 0.00 in0.0 mm 0.00 in0.0 mm 0.00 in0.0 mm
06:55 AM 72.2°F22.3°C 66.7°F19.3°C 83% 2.9 mph SSW4.7 kmh SSW 7.0 mph11.3 kmh 29.89 in1012.2 mb 0.00 in0.0 mm 0.00 in0.0 mm 0.00 in0.0 mm
07:00 AM 72.2°F22.3°C 66.7°F19.3°C 83% 3.5 mph SW5.6 kmh SW 7.0 mph11.3 kmh 29.89 in1012.2 mb 0.00 in0.0 mm 0.00 in0.0 mm 0.00 in0.0 mm
07:05 AM 72.2°F22.3°C 66.7°F19.3°C 83% 3.1 mph SSW5.0 kmh SSW 7.0 mph11.3 kmh 29.89 in1012.2 mb 0.00 in0.0 mm 0.00 in0.0 mm 0.00 in0.0 mm
07:10 AM 72.3°F22.4°C 66.8°F19.3°C 83% 3.8 mph SSW6.1 kmh SSW 7.0 mph11.3 kmh 29.90 in1012.5 mb 0.00 in0.0 mm 0.00 in0.0 mm 0.00 in0.0 mm
07:15 AM 72.3°F22.4°C 66.8°F19.3°C 83% 3.7 mph SSW6.0 kmh SSW 8.0 mph12.9 kmh 29.90 in1012.5 mb 0.00 in0.0 mm 0.00 in0.0 mm 0.00 in0.0 mm
07:20 AM 72.3°F22.4°C 66.8°F19.3°C 83% 2.7 mph SW4.3 kmh SW 8.0 mph12.9 kmh 29.90 in1012.5 mb 0.00 in0.0 mm 0.00 in0.0 mm 0.00 in0.0 mm
07:25 AM 72.4°F22.4°C 66.9°F19.4°C 83% 4.7 mph SSW7.6 kmh SSW 9.0 mph14.5 kmh 29.90 in1012.5 mb 0.00 in0.0 mm 0.00 in0.0 mm 0.00 in0.0 mm
07:30 AM 72.5°F22.5°C 67.0°F19.4°C 83% 3.5 mph SSW5.6 kmh SSW 9.0 mph14.5 kmh 29.91 in1012.9 mb 0.00 in0.0 mm 0.00 in0.0 mm 0.00 in0.0 mm
07:35 AM 72.5°F22.5°C 67.0°F19.4°C 83% 2.4 mph SW3.9 kmh SW 9.0 mph14.5 kmh 29.91 in1012.9 mb 0.00 in0.0 mm 0.00 in0.0 mm 0.00 in0.0 mm
07:40 AM 72.5°F22.5°C 66.7°F19.3°C 82% 3.5 mph SSW5.6 kmh SSW 10.0 mph16.1 kmh 29.91 in1012.9 mb 0.00 in0.0 mm 0.00 in0.0 mm 0.00 in0.0 mm
07:45 AM 72.5°F22.5°C 66.7°F19.3°C 82% 3.7 mph SSW6.0 kmh SSW 10.0 mph16.1 kmh 29.91 in1012.9 mb 0.00 in0.0 mm 0.00 in0.0 mm 0.00 in0.0 mm
07:50 AM 72.6°F22.6°C 66.8°F19.3°C 82% 3.2 mph SSW5.1 kmh SSW 10.0 mph16.1 kmh 29.91 in1012.9 mb 0.00 in0.0 mm 0.00 in0.0 mm 0.00 in0.0 mm
07:55 AM 72.6°F22.6°C 67.1°F19.5°C 83% 3.2 mph SSW5.1 kmh SSW 7.0 mph11.3 kmh 29.92 in1013.2 mb 0.00 in0.0 mm 0.00 in0.0 mm 0.00 in0.0 mm
08:00 AM 72.5°F22.5°C 67.0°F19.4°C 83% 4.6 mph SSW7.4 kmh SSW 9.0 mph14.5 kmh 29.92 in1013.2 mb 0.00 in0.0 mm 0.00 in0.0 mm 0.00 in0.0 mm
08:05 AM 72.8°F22.7°C 67.0°F19.4°C 82% 3.7 mph SSW6.0 kmh SSW 9.0 mph14.5 kmh 29.92 in1013.2 mb 0.00 in0.0 mm 0.00 in0.0 mm 0.00 in0.0 mm
08:10 AM 72.9°F22.7°C 67.1°F19.5°C 82% 4.5 mph SSW7.2 kmh SSW 11.0 mph17.7 kmh 29.92 in1013.2 mb 0.00 in0.0 mm 0.00 in0.0 mm 0.00 in0.0 mm
08:15 AM 73.0°F22.8°C 67.2°F19.6°C 82% 4.7 mph SSW7.6 kmh SSW 11.0 mph17.7 kmh 29.92 in1013.2 mb 0.00 in0.0 mm 0.00 in0.0 mm 0.00 in0.0 mm
08:20 AM 72.9°F22.7°C 67.1°F19.5°C 82% 4.2 mph SSW6.8 kmh SSW 9.0 mph14.5 kmh 29.93 in1013.5 mb 0.00 in0.0 mm 0.00 in0.0 mm 0.00 in0.0 mm
08:25 AM 73.1°F22.8°C 67.3°F19.6°C 82% 3.5 mph SSW5.6 kmh SSW 7.0 mph11.3 kmh 29.93 in1013.5 mb 0.00 in0.0 mm 0.00 in0.0 mm 0.00 in0.0 mm
08:30 AM 73.3°F22.9°C 67.5°F19.7°C 82% 4.4 mph S7.1 kmh S 9.0 mph14.5 kmh 29.93 in1013.5 mb 0.00 in0.0 mm 0.00 in0.0 mm 0.00 in0.0 mm
08:35 AM 73.5°F23.1°C 67.3°F19.6°C 81% 3.2 mph SSW5.1 kmh SSW 9.0 mph14.5 kmh 29.93 in1013.5 mb 0.00 in0.0 mm 0.00 in0.0 mm 0.00 in0.0 mm
08:40 AM 73.6°F23.1°C 67.4°F19.7°C 81% 4.0 mph SSW6.4 kmh SSW 9.0 mph14.5 kmh 29.93 in1013.5 mb 0.00 in0.0 mm 0.00 in0.0 mm 0.00 in0.0 mm
08:45 AM 73.7°F23.2°C 67.5°F19.7°C 81% 3.1 mph SSW5.0 kmh SSW 9.0 mph14.5 kmh 29.93 in1013.5 mb 0.00 in0.0 mm 0.00 in0.0 mm 0.00 in0.0 mm
08:50 AM 73.8°F23.2°C 67.6°F19.8°C 81% 2.9 mph SSW4.7 kmh SSW 8.0 mph12.9 kmh 29.93 in1013.5 mb 0.00 in0.0 mm 0.00 in0.0 mm 0.00 in0.0 mm
08:55 AM 73.9°F23.3°C 67.3°F19.6°C 80% 4.2 mph SSW6.8 kmh SSW 12.0 mph19.3 kmh 29.93 in1013.5 mb 0.00 in0.0 mm 0.00 in0.0 mm 0.00 in0.0 mm
09:00 AM 73.9°F23.3°C 67.3°F19.6°C 80% 3.5 mph SW5.6 kmh SW 12.0 mph19.3 kmh 29.93 in1013.5 mb 0.00 in0.0 mm 0.00 in0.0 mm 0.00 in0.0 mm
09:05 AM 74.0°F23.3°C 67.4°F19.7°C 80% 3.3 mph SW5.3 kmh SW 9.0 mph14.5 kmh 29.93 in1013.5 mb 0.00 in0.0 mm 0.00 in0.0 mm 0.00 in0.0 mm
09:10 AM 74.0°F23.3°C 67.1°F19.5°C 79% 3.6 mph SSW5.8 kmh SSW 8.0 mph12.9 kmh 29.93 in1013.5 mb 0.00 in0.0 mm 0.00 in0.0 mm 0.00 in0.0 mm
09:15 AM 74.1°F23.4°C 67.2°F19.6°C 79% 4.7 mph SSW7.6 kmh SSW 10.0 mph16.1 kmh 29.93 in1013.5 mb 0.00 in0.0 mm 0.00 in0.0 mm 0.00 in0.0 mm
09:20 AM 74.1°F23.4°C 67.2°F19.6°C 79% 3.3 mph SSW5.3 kmh SSW 10.0 mph16.1 kmh 29.93 in1013.5 mb 0.00 in0.0 mm 0.00 in0.0 mm 0.00 in0.0 mm
09:25 AM 74.2°F23.4°C 67.3°F19.6°C 79% 3.6 mph SSW5.8 kmh SSW 8.0 mph12.9 kmh 29.94 in1013.9 mb 0.00 in0.0 mm 0.00 in0.0 mm 0.00 in0.0 mm
09:30 AM 74.1°F23.4°C 67.2°F19.6°C 79% 3.1 mph SSW5.0 kmh SSW 8.0 mph12.9 kmh 29.94 in1013.9 mb 0.00 in0.0 mm 0.00 in0.0 mm 0.00 in0.0 mm
09:35 AM 74.1°F23.4°C 67.2°F19.6°C 79% 4.6 mph SSW7.4 kmh SSW 9.0 mph14.5 kmh 29.94 in1013.9 mb 0.00 in0.0 mm 0.00 in0.0 mm 0.00 in0.0 mm
09:40 AM 74.1°F23.4°C 67.2°F19.6°C 79% 3.5 mph SSW5.6 kmh SSW 9.0 mph14.5 kmh 29.94 in1013.9 mb 0.00 in0.0 mm 0.00 in0.0 mm 0.00 in0.0 mm
09:45 AM 74.2°F23.4°C 67.3°F19.6°C 79% 4.3 mph S6.9 kmh S 9.0 mph14.5 kmh 29.94 in1013.9 mb 0.00 in0.0 mm 0.00 in0.0 mm 0.00 in0.0 mm
09:50 AM 74.4°F23.6°C 67.4°F19.7°C 79% 3.7 mph SSW6.0 kmh SSW 9.0 mph14.5 kmh 29.94 in1013.9 mb 0.00 in0.0 mm 0.00 in0.0 mm 0.00 in0.0 mm
09:55 AM 74.5°F23.6°C 67.5°F19.7°C 79% 3.4 mph S5.5 kmh S 8.0 mph12.9 kmh 29.94 in1013.9 mb 0.00 in0.0 mm 0.00 in0.0 mm 0.00 in0.0 mm
10:00 AM 74.5°F23.6°C 67.5°F19.7°C 79% 5.3 mph S8.5 kmh S 11.0 mph17.7 kmh 29.94 in1013.9 mb 0.00 in0.0 mm 0.00 in0.0 mm 0.00 in0.0 mm
10:05 AM 74.6°F23.7°C 67.6°F19.8°C 79% 5.1 mph S8.2 kmh S 11.0 mph17.7 kmh 29.94 in1013.9 mb 0.00 in0.0 mm 0.00 in0.0 mm 0.00 in0.0 mm
10:10 AM 74.8°F23.8°C 67.5°F19.7°C 78% 4.9 mph S7.9 kmh S 9.0 mph14.5 kmh 29.94 in1013.9 mb 0.00 in0.0 mm 0.00 in0.0 mm 0.00 in0.0 mm
10:15 AM 74.9°F23.8°C 67.6°F19.8°C 78% 4.6 mph S7.4 kmh S 9.0 mph14.5 kmh 29.94 in1013.9 mb 0.00 in0.0 mm 0.00 in0.0 mm 0.00 in0.0 mm
10:20 AM 75.0°F23.9°C 67.7°F19.8°C 78% 6.4 mph S10.3 kmh S 12.0 mph19.3 kmh 29.94 in1013.9 mb 0.00 in0.0 mm 0.00 in0.0 mm 0.00 in0.0 mm
10:25 AM 75.1°F23.9°C 67.4°F19.7°C 77% 5.6 mph S9.0 kmh S 12.0 mph19.3 kmh 29.95 in1014.2 mb 0.00 in0.0 mm 0.00 in0.0 mm 0.00 in0.0 mm
10:30 AM 75.2°F24.0°C 67.5°F19.7°C 77% 5.5 mph S8.9 kmh S 11.0 mph17.7 kmh 29.95 in1014.2 mb 0.00 in0.0 mm 0.00 in0.0 mm 0.00 in0.0 mm
10:35 AM 75.1°F23.9°C 67.4°F19.7°C 77% 6.0 mph SSW9.7 kmh SSW 12.0 mph19.3 kmh 29.95 in1014.2 mb 0.00 in0.0 mm 0.00 in0.0 mm 0.00 in0.0 mm
10:40 AM 75.2°F24.0°C 67.5°F19.7°C 77% 5.7 mph S9.2 kmh S 12.0 mph19.3 kmh 29.95 in1014.2 mb 0.00 in0.0 mm 0.00 in0.0 mm 0.00 in0.0 mm
10:45 AM 75.4°F24.1°C 67.7°F19.8°C 77% 4.8 mph S7.7 kmh S 10.0 mph16.1 kmh 29.95 in1014.2 mb 0.00 in0.0 mm 0.00 in0.0 mm 0.00 in0.0 mm
10:50 AM 75.5°F24.2°C 67.8°F19.9°C 77% 4.8 mph SSW7.7 kmh SSW 10.0 mph16.1 kmh 29.95 in1014.2 mb 0.00 in0.0 mm 0.00 in0.0 mm 0.00 in0.0 mm
10:55 AM 75.6°F24.2°C 67.9°F19.9°C 77% 4.1 mph S6.6 kmh S 10.0 mph16.1 kmh 29.95 in1014.2 mb 0.00 in0.0 mm 0.00 in0.0 mm 0.00 in0.0 mm
11:00 AM 75.6°F24.2°C 67.9°F19.9°C 77% 6.3 mph SSW10.1 kmh SSW 10.0 mph16.1 kmh 29.95 in1014.2 mb 0.00 in0.0 mm 0.00 in0.0 mm 0.00 in0.0 mm
11:05 AM 75.6°F24.2°C 67.9°F19.9°C 77% 6.2 mph S10.0 kmh S 12.0 mph19.3 kmh 29.96 in1014.6 mb 0.00 in0.0 mm 0.00 in0.0 mm 0.00 in0.0 mm
11:10 AM 76.0°F24.4°C 67.9°F19.9°C 76% 5.7 mph S9.2 kmh S 12.0 mph19.3 kmh 29.96 in1014.6 mb 0.00 in0.0 mm 0.00 in0.0 mm 0.00 in0.0 mm
11:15 AM 76.4°F24.7°C 68.3°F20.2°C 76% 5.8 mph S9.3 kmh S 10.0 mph16.1 kmh 29.96 in1014.6 mb 0.00 in0.0 mm 0.00 in0.0 mm 0.00 in0.0 mm
11:20 AM 76.2°F24.6°C 68.1°F20.1°C 76% 5.9 mph S9.5 kmh S 10.0 mph16.1 kmh 29.96 in1014.6 mb 0.00 in0.0 mm 0.00 in0.0 mm 0.00 in0.0 mm
11:25 AM 76.1°F24.5°C 68.0°F20.0°C 76% 4.4 mph S7.1 kmh S 10.0 mph16.1 kmh 29.96 in1014.6 mb 0.00 in0.0 mm 0.00 in0.0 mm 0.00 in0.0 mm
11:30 AM 76.1°F24.5°C 68.0°F20.0°C 76% 4.2 mph S6.8 kmh S 10.0 mph16.1 kmh 29.96 in1014.6 mb 0.00 in0.0 mm 0.00 in0.0 mm 0.00 in0.0 mm
11:35 AM 76.4°F24.7°C 68.3°F20.2°C 76% 3.5 mph S5.6 kmh S 10.0 mph16.1 kmh 29.96 in1014.6 mb 0.00 in0.0 mm 0.00 in0.0 mm 0.00 in0.0 mm
11:40 AM 76.6°F24.8°C 68.5°F20.3°C 76% 5.8 mph S9.3 kmh S 13.0 mph20.9 kmh 29.96 in1014.6 mb 0.00 in0.0 mm 0.00 in0.0 mm 0.00 in0.0 mm
11:45 AM 76.9°F24.9°C 68.4°F20.2°C 75% 7.0 mph S11.3 kmh S 13.0 mph20.9 kmh 29.96 in1014.6 mb 0.00 in0.0 mm 0.00 in0.0 mm 0.00 in0.0 mm
11:50 AM 77.4°F25.2°C 68.8°F20.4°C 75% 6.4 mph S10.3 kmh S 13.0 mph20.9 kmh 29.96 in1014.6 mb 0.00 in0.0 mm 0.00 in0.0 mm 0.00 in0.0 mm
11:55 AM 77.5°F25.3°C 68.5°F20.3°C 74% 5.5 mph S8.9 kmh S 12.0 mph19.3 kmh 29.96 in1014.6 mb 0.00 in0.0 mm 0.00 in0.0 mm 0.00 in0.0 mm
12:00 PM 78.2°F25.7°C 68.8°F20.4°C 73% 4.6 mph S7.4 kmh S 10.0 mph16.1 kmh 29.96 in1014.6 mb 0.00 in0.0 mm 0.00 in0.0 mm 0.00 in0.0 mm
12:05 PM 78.2°F25.7°C 68.4°F20.2°C 72% 5.6 mph S9.0 kmh S 11.0 mph17.7 kmh 29.96 in1014.6 mb 0.00 in0.0 mm 0.00 in0.0 mm 0.00 in0.0 mm
12:10 PM 78.3°F25.7°C 68.5°F20.3°C 72% 7.2 mph SSW11.6 kmh SSW 13.0 mph20.9 kmh 29.96 in1014.6 mb 0.00 in0.0 mm 0.00 in0.0 mm 0.00 in0.0 mm
12:15 PM 78.5°F25.8°C 68.7°F20.4°C 72% 6.2 mph SSW10.0 kmh SSW 13.0 mph20.9 kmh 29.96 in1014.6 mb 0.00 in0.0 mm 0.00 in0.0 mm 0.00 in0.0 mm
12:20 PM 77.7°F25.4°C 68.3°F20.2°C 73% 5.7 mph S9.2 kmh S 13.0 mph20.9 kmh 29.96 in1014.6 mb 0.00 in0.0 mm 0.00 in0.0 mm 0.00 in0.0 mm
12:25 PM 76.7°F24.8°C 68.2°F20.1°C 75% 3.4 mph S5.5 kmh S 12.0 mph19.3 kmh 29.96 in1014.6 mb 0.00 in0.0 mm 0.00 in0.0 mm 0.00 in0.0 mm
12:30 PM 76.3°F24.6°C 68.5°F20.3°C 77% 4.7 mph S7.6 kmh S 12.0 mph19.3 kmh 29.96 in1014.6 mb 0.00 in0.0 mm 0.00 in0.0 mm 0.00 in0.0 mm
12:35 PM 77.1°F25.1°C 68.9°F20.5°C 76% 6.3 mph S10.1 kmh S 14.0 mph22.5 kmh 29.96 in1014.6 mb 0.00 in0.0 mm 0.00 in0.0 mm 0.00 in0.0 mm
12:40 PM 78.4°F25.8°C 69.4°F20.8°C 74% 6.8 mph S10.9 kmh S 18.0 mph29.0 kmh 29.96 in1014.6 mb 0.00 in0.0 mm 0.00 in0.0 mm 0.00 in0.0 mm
12:45 PM 78.9°F26.1°C 69.1°F20.6°C 72% 8.5 mph SSW13.7 kmh SSW 19.0 mph30.6 kmh 29.95 in1014.2 mb 0.00 in0.0 mm 0.00 in0.0 mm 0.00 in0.0 mm
12:50 PM 78.5°F25.8°C 68.7°F20.4°C 72% 9.3 mph SSW15.0 kmh SSW 19.0 mph30.6 kmh 29.95 in1014.2 mb 0.00 in0.0 mm 0.00 in0.0 mm 0.00 in0.0 mm
12:55 PM 78.4°F25.8°C 69.0°F20.6°C 73% 7.1 mph S11.4 kmh S 16.0 mph25.7 kmh 29.95 in1014.2 mb 0.00 in0.0 mm 0.00 in0.0 mm 0.00 in0.0 mm
01:00 PM 79.0°F26.1°C 69.2°F20.7°C 72% 6.9 mph S11.1 kmh S 16.0 mph25.7 kmh 29.95 in1014.2 mb 0.00 in0.0 mm 0.00 in0.0 mm 0.00 in0.0 mm
01:05 PM 79.0°F26.1°C 68.8°F20.4°C 71% 7.4 mph SSW11.9 kmh SSW 16.0 mph25.7 kmh 29.95 in1014.2 mb 0.00 in0.0 mm 0.00 in0.0 mm 0.00 in0.0 mm
01:10 PM 78.2°F25.7°C 68.4°F20.2°C 72% 7.7 mph S12.4 kmh S 16.0 mph25.7 kmh 29.94 in1013.9 mb 0.00 in0.0 mm 0.00 in0.0 mm 0.00 in0.0 mm
01:15 PM 79.5°F26.4°C 69.3°F20.7°C 71% 7.3 mph S11.7 kmh S 18.0 mph29.0 kmh 29.94 in1013.9 mb 0.00 in0.0 mm 0.00 in0.0 mm 0.00 in0.0 mm
01:20 PM 80.5°F26.9°C 69.4°F20.8°C 69% 8.1 mph S13.0 kmh S 18.0 mph29.0 kmh 29.94 in1013.9 mb 0.00 in0.0 mm 0.00 in0.0 mm 0.00 in0.0 mm
01:25 PM 80.7°F27.1°C 69.1°F20.6°C 68% 8.9 mph S14.3 kmh S 19.0 mph30.6 kmh 29.94 in1013.9 mb 0.00 in0.0 mm 0.00 in0.0 mm 0.00 in0.0 mm
01:30 PM 80.1°F26.7°C 68.1°F20.1°C 67% 9.7 mph S15.6 kmh S 19.0 mph30.6 kmh 29.94 in1013.9 mb 0.00 in0.0 mm 0.00 in0.0 mm 0.00 in0.0 mm
01:35 PM 80.0°F26.7°C 68.5°F20.3°C 68% 9.1 mph SSW14.6 kmh SSW 17.0 mph27.4 kmh 29.94 in1013.9 mb 0.00 in0.0 mm 0.00 in0.0 mm 0.00 in0.0 mm
01:40 PM 79.8°F26.6°C 68.7°F20.4°C 69% 8.2 mph SSW13.2 kmh SSW 17.0 mph27.4 kmh 29.94 in1013.9 mb 0.00 in0.0 mm 0.00 in0.0 mm 0.00 in0.0 mm
01:45 PM 79.7°F26.5°C 68.2°F20.1°C 68% 9.2 mph S14.8 kmh S 19.0 mph30.6 kmh 29.94 in1013.9 mb 0.00 in0.0 mm 0.00 in0.0 mm 0.00 in0.0 mm
01:50 PM 79.8°F26.6°C 68.3°F20.2°C 68% 7.3 mph SSW11.7 kmh SSW 19.0 mph30.6 kmh 29.94 in1013.9 mb 0.00 in0.0 mm 0.00 in0.0 mm 0.00 in0.0 mm
01:55 PM 80.1°F26.7°C 68.1°F20.1°C 67% 7.9 mph S12.7 kmh S 16.0 mph25.7 kmh 29.93 in1013.5 mb 0.00 in0.0 mm 0.00 in0.0 mm 0.00 in0.0 mm
02:00 PM 80.2°F26.8°C 68.2°F20.1°C 67% 11.5 mph S18.5 kmh S 20.0 mph32.2 kmh 29.93 in1013.5 mb 0.00 in0.0 mm 0.00 in0.0 mm 0.00 in0.0 mm
02:05 PM 80.9°F27.2°C 68.9°F20.5°C 67% 9.6 mph SSW15.4 kmh SSW 20.0 mph32.2 kmh 29.93 in1013.5 mb 0.00 in0.0 mm 0.00 in0.0 mm 0.00 in0.0 mm
02:10 PM 80.9°F27.2°C 68.0°F20.0°C 65% 9.2 mph S14.8 kmh S 18.0 mph29.0 kmh 29.93 in1013.5 mb 0.00 in0.0 mm 0.00 in0.0 mm 0.00 in0.0 mm
02:15 PM 81.1°F27.3°C 68.2°F20.1°C 65% 8.4 mph SSW13.5 kmh SSW 19.0 mph30.6 kmh 29.93 in1013.5 mb 0.00 in0.0 mm 0.00 in0.0 mm 0.00 in0.0 mm
02:20 PM 81.6°F27.6°C 68.7°F20.4°C 65% 9.6 mph SSW15.4 kmh SSW 19.0 mph30.6 kmh 29.93 in1013.5 mb 0.00 in0.0 mm 0.00 in0.0 mm 0.00 in0.0 mm
02:25 PM 81.8°F27.7°C 68.9°F20.5°C 65% 7.6 mph SSW12.2 kmh SSW 16.0 mph25.7 kmh 29.93 in1013.5 mb 0.00 in0.0 mm 0.00 in0.0 mm 0.00 in0.0 mm
02:30 PM 81.5°F27.5°C 68.1°F20.1°C 64% 10.1 mph S16.3 kmh S 18.0 mph29.0 kmh 29.92 in1013.2 mb 0.00 in0.0 mm 0.00 in0.0 mm 0.00 in0.0 mm
02:35 PM 81.4°F27.4°C 68.5°F20.3°C 65% 10.1 mph S16.3 kmh S 18.0 mph29.0 kmh 29.92 in1013.2 mb 0.00 in0.0 mm 0.00 in0.0 mm 0.00 in0.0 mm
02:40 PM 80.3°F26.8°C 67.4°F19.7°C 65% 9.0 mph SSW14.5 kmh SSW 18.0 mph29.0 kmh 29.92 in1013.2 mb 0.00 in0.0 mm 0.00 in0.0 mm 0.00 in0.0 mm
02:45 PM 80.1°F26.7°C 67.7°F19.8°C 66% 9.1 mph SSW14.6 kmh SSW 20.0 mph32.2 kmh 29.92 in1013.2 mb 0.00 in0.0 mm 0.00 in0.0 mm 0.00 in0.0 mm
02:50 PM 80.5°F26.9°C 67.6°F19.8°C 65% 9.5 mph SSW15.3 kmh SSW 20.0 mph32.2 kmh 29.91 in1012.9 mb 0.00 in0.0 mm 0.00 in0.0 mm 0.00 in0.0 mm
02:55 PM 80.1°F26.7°C 67.2°F19.6°C 65% 9.7 mph S15.6 kmh S 18.0 mph29.0 kmh 29.91 in1012.9 mb 0.00 in0.0 mm 0.00 in0.0 mm 0.00 in0.0 mm
03:00 PM 80.4°F26.9°C 67.1°F19.5°C 64% 11.1 mph SSW17.9 kmh SSW 23.0 mph37.0 kmh 29.91 in1012.9 mb 0.00 in0.0 mm 0.00 in0.0 mm 0.00 in0.0 mm
03:05 PM 80.5°F26.9°C 67.2°F19.6°C 64% 9.1 mph SSW14.6 kmh SSW 23.0 mph37.0 kmh 29.91 in1012.9 mb 0.00 in0.0 mm 0.00 in0.0 mm 0.00 in0.0 mm
03:10 PM 79.7°F26.5°C 67.3°F19.6°C 66% 8.6 mph SSW13.8 kmh SSW 19.0 mph30.6 kmh 29.91 in1012.9 mb 0.00 in0.0 mm 0.00 in0.0 mm 0.00 in0.0 mm
03:15 PM 79.4°F26.3°C 66.6°F19.2°C 65% 9.9 mph SSW15.9 kmh SSW 19.0 mph30.6 kmh 29.91 in1012.9 mb 0.00 in0.0 mm 0.00 in0.0 mm 0.00 in0.0 mm
03:20 PM 79.4°F26.3°C 67.0°F19.4°C 66% 10.7 mph SSW17.2 kmh SSW 23.0 mph37.0 kmh 29.91 in1012.9 mb 0.00 in0.0 mm 0.00 in0.0 mm 0.00 in0.0 mm
03:25 PM 79.7°F26.5°C 66.9°F19.4°C 65% 10.7 mph SSW17.2 kmh SSW 23.0 mph37.0 kmh 29.91 in1012.9 mb 0.00 in0.0 mm 0.00 in0.0 mm 0.00 in0.0 mm
03:30 PM 79.0°F26.1°C 67.1°F19.5°C 67% 9.9 mph SSW15.9 kmh SSW 20.0 mph32.2 kmh 29.91 in1012.9 mb 0.00 in0.0 mm 0.00 in0.0 mm 0.00 in0.0 mm
03:35 PM 79.2°F26.2°C 66.8°F19.3°C 66% 8.7 mph SSW14.0 kmh SSW 21.0 mph33.8 kmh 29.91 in1012.9 mb 0.00 in0.0 mm 0.00 in0.0 mm 0.00 in0.0 mm
03:40 PM 79.6°F26.4°C 67.7°F19.8°C 67% 7.4 mph SSW11.9 kmh SSW 21.0 mph33.8 kmh 29.91 in1012.9 mb 0.00 in0.0 mm 0.00 in0.0 mm 0.00 in0.0 mm
03:45 PM 79.0°F26.1°C 67.1°F19.5°C 67% 8.4 mph SSW13.5 kmh SSW 19.0 mph30.6 kmh 29.91 in1012.9 mb 0.00 in0.0 mm 0.00 in0.0 mm 0.00 in0.0 mm
03:50 PM 78.7°F25.9°C 66.8°F19.3°C 67% 7.7 mph SSW12.4 kmh SSW 19.0 mph30.6 kmh 29.90 in1012.5 mb 0.00 in0.0 mm 0.00 in0.0 mm 0.00 in0.0 mm
03:55 PM 78.4°F25.8°C 66.9°F19.4°C 68% 8.8 mph SSW14.2 kmh SSW 17.0 mph27.4 kmh 29.89 in1012.2 mb 0.00 in0.0 mm 0.00 in0.0 mm 0.00 in0.0 mm
04:00 PM 78.2°F25.7°C 66.8°F19.3°C 68% 7.4 mph SSW11.9 kmh SSW 16.0 mph25.7 kmh 29.89 in1012.2 mb 0.00 in0.0 mm 0.00 in0.0 mm 0.00 in0.0 mm
04:05 PM 77.5°F25.3°C 66.5°F19.2°C 69% 8.5 mph SSW13.7 kmh SSW 17.0 mph27.4 kmh 29.88 in1011.9 mb 0.00 in0.0 mm 0.00 in0.0 mm 0.00 in0.0 mm
04:10 PM 77.0°F25.0°C 66.4°F19.1°C 70% 9.2 mph SSW14.8 kmh SSW 17.0 mph27.4 kmh 29.87 in1011.5 mb 0.00 in0.0 mm 0.00 in0.0 mm 0.00 in0.0 mm
04:15 PM 76.8°F24.9°C 66.7°F19.3°C 71% 8.5 mph SSW13.7 kmh SSW 17.0 mph27.4 kmh 29.86 in1011.2 mb 0.00 in0.0 mm 0.00 in0.0 mm 0.00 in0.0 mm
04:20 PM 76.8°F24.9°C 66.7°F19.3°C 71% 6.1 mph SSW9.8 kmh SSW 16.0 mph25.7 kmh 29.87 in1011.5 mb 0.00 in0.0 mm 0.00 in0.0 mm 0.00 in0.0 mm
04:25 PM 76.7°F24.8°C 66.6°F19.2°C 71% 8.1 mph SSW13.0 kmh SSW 15.0 mph24.1 kmh 29.87 in1011.5 mb 0.00 in0.0 mm 0.00 in0.0 mm 0.00 in0.0 mm
04:30 PM 76.8°F24.9°C 66.7°F19.3°C 71% 6.2 mph SSW10.0 kmh SSW 15.0 mph24.1 kmh 29.87 in1011.5 mb 0.00 in0.0 mm 0.00 in0.0 mm 0.00 in0.0 mm
04:35 PM 77.1°F25.1°C 67.0°F19.4°C 71% 5.3 mph SSW8.5 kmh SSW 11.0 mph17.7 kmh 29.87 in1011.5 mb 0.00 in0.0 mm 0.00 in0.0 mm 0.00 in0.0 mm
04:40 PM 77.4°F25.2°C 66.8°F19.3°C 70% 4.5 mph SSW7.2 kmh SSW 11.0 mph17.7 kmh 29.87 in1011.5 mb 0.00 in0.0 mm 0.00 in0.0 mm 0.00 in0.0 mm
04:45 PM 77.7°F25.4°C 66.7°F19.3°C 69% 5.1 mph SSW8.2 kmh SSW 10.0 mph16.1 kmh 29.87 in1011.5 mb 0.00 in0.0 mm 0.00 in0.0 mm 0.00 in0.0 mm
04:50 PM 77.8°F25.4°C 66.4°F19.1°C 68% 4.4 mph SSW7.1 kmh SSW 10.0 mph16.1 kmh 29.88 in1011.9 mb 0.00 in0.0 mm 0.00 in0.0 mm 0.00 in0.0 mm
04:55 PM 77.7°F25.4°C 66.3°F19.1°C 68% 5.9 mph SSW9.5 kmh SSW 13.0 mph20.9 kmh 29.88 in1011.9 mb 0.00 in0.0 mm 0.00 in0.0 mm 0.00 in0.0 mm
05:00 PM 77.6°F25.3°C 66.2°F19.0°C 68% 5.1 mph SSW8.2 kmh SSW 13.0 mph20.9 kmh 29.88 in1011.9 mb 0.00 in0.0 mm 0.00 in0.0 mm 0.00 in0.0 mm
05:05 PM 77.5°F25.3°C 66.1°F18.9°C 68% 5.7 mph SSW9.2 kmh SSW 12.0 mph19.3 kmh 29.88 in1011.9 mb 0.00 in0.0 mm 0.00 in0.0 mm 0.00 in0.0 mm
05:10 PM 77.5°F25.3°C 66.5°F19.2°C 69% 4.4 mph SSW7.1 kmh SSW 12.0 mph19.3 kmh 29.87 in1011.5 mb 0.00 in0.0 mm 0.00 in0.0 mm 0.00 in0.0 mm
05:15 PM 77.5°F25.3°C 66.1°F18.9°C 68% 6.8 mph SSW10.9 kmh SSW 12.0 mph19.3 kmh 29.87 in1011.5 mb 0.00 in0.0 mm 0.00 in0.0 mm 0.00 in0.0 mm
05:20 PM 77.5°F25.3°C 66.5°F19.2°C 69% 6.0 mph SSW9.7 kmh SSW 12.0 mph19.3 kmh 29.87 in1011.5 mb 0.00 in0.0 mm 0.00 in0.0 mm 0.00 in0.0 mm
05:25 PM 77.4°F25.2°C 66.4°F19.1°C 69% 6.2 mph SSW10.0 kmh SSW 12.0 mph19.3 kmh 29.88 in1011.9 mb 0.00 in0.0 mm 0.00 in0.0 mm 0.00 in0.0 mm
05:30 PM 77.4°F25.2°C 66.4°F19.1°C 69% 5.6 mph SSW9.0 kmh SSW 12.0 mph19.3 kmh 29.87 in1011.5 mb 0.00 in0.0 mm 0.00 in0.0 mm 0.00 in0.0 mm
05:35 PM 77.4°F25.2°C 66.4°F19.1°C 69% 5.2 mph SSW8.4 kmh SSW 12.0 mph19.3 kmh 29.87 in1011.5 mb 0.00 in0.0 mm 0.00 in0.0 mm 0.00 in0.0 mm
05:40 PM 77.5°F25.3°C 66.5°F19.2°C 69% 5.2 mph SSW8.4 kmh SSW 11.0 mph17.7 kmh 29.88 in1011.9 mb 0.00 in0.0 mm 0.00 in0.0 mm 0.00 in0.0 mm
05:45 PM 77.6°F25.3°C 66.6°F19.2°C 69% 4.2 mph SSW6.8 kmh SSW 11.0 mph17.7 kmh 29.88 in1011.9 mb 0.00 in0.0 mm 0.00 in0.0 mm 0.00 in0.0 mm
05:50 PM 77.7°F25.4°C 66.7°F19.3°C 69% 3.7 mph S6.0 kmh S 9.0 mph14.5 kmh 29.88 in1011.9 mb 0.00 in0.0 mm 0.00 in0.0 mm 0.00 in0.0 mm
05:55 PM 77.8°F25.4°C 67.2°F19.6°C 70% 3.9 mph S6.3 kmh S 7.0 mph11.3 kmh 29.87 in1011.5 mb 0.00 in0.0 mm 0.00 in0.0 mm 0.00 in0.0 mm
06:00 PM 77.7°F25.4°C 67.1°F19.5°C 70% 4.1 mph S6.6 kmh S 9.0 mph14.5 kmh 29.88 in1011.9 mb 0.00 in0.0 mm 0.00 in0.0 mm 0.00 in0.0 mm
06:05 PM 77.6°F25.3°C 67.0°F19.4°C 70% 3.5 mph SSW5.6 kmh SSW 9.0 mph14.5 kmh 29.89 in1012.2 mb 0.00 in0.0 mm 0.00 in0.0 mm 0.00 in0.0 mm
06:10 PM 77.6°F25.3°C 67.0°F19.4°C 70% 2.5 mph S4.0 kmh S 8.0 mph12.9 kmh 29.88 in1011.9 mb 0.00 in0.0 mm 0.00 in0.0 mm 0.00 in0.0 mm
06:15 PM 77.7°F25.4°C 67.1°F19.5°C 70% 2.4 mph SSW3.9 kmh SSW 6.0 mph9.7 kmh 29.87 in1011.5 mb 0.00 in0.0 mm 0.00 in0.0 mm 0.00 in0.0 mm
06:20 PM 77.8°F25.4°C 67.2°F19.6°C 70% 1.6 mph S2.6 kmh S 5.0 mph8.0 kmh 29.87 in1011.5 mb 0.00 in0.0 mm 0.00 in0.0 mm 0.00 in0.0 mm
06:25 PM 77.7°F25.4°C 67.1°F19.5°C 70% 2.8 mph SSW4.5 kmh SSW 6.0 mph9.7 kmh 29.86 in1011.2 mb 0.00 in0.0 mm 0.00 in0.0 mm 0.00 in0.0 mm
06:30 PM 77.8°F25.4°C 67.2°F19.6°C 70% 2.9 mph SSW4.7 kmh SSW 6.0 mph9.7 kmh 29.86 in1011.2 mb 0.00 in0.0 mm 0.00 in0.0 mm 0.00 in0.0 mm
06:35 PM 77.9°F25.5°C 67.3°F19.6°C 70% 3.3 mph SSW5.3 kmh SSW 6.0 mph9.7 kmh 29.86 in1011.2 mb 0.00 in0.0 mm 0.00 in0.0 mm 0.00 in0.0 mm
06:40 PM 77.9°F25.5°C 67.3°F19.6°C 70% 3.7 mph SSW6.0 kmh SSW 7.0 mph11.3 kmh 29.86 in1011.2 mb 0.00 in0.0 mm 0.00 in0.0 mm 0.00 in0.0 mm
06:45 PM 77.9°F25.5°C 67.3°F19.6°C 70% 4.0 mph SSW6.4 kmh SSW 9.0 mph14.5 kmh 29.87 in1011.5 mb 0.00 in0.0 mm 0.00 in0.0 mm 0.00 in0.0 mm
06:50 PM 77.9°F25.5°C 67.3°F19.6°C 70% 1.6 mph SSW2.6 kmh SSW 9.0 mph14.5 kmh 29.87 in1011.5 mb 0.00 in0.0 mm 0.00 in0.0 mm 0.00 in0.0 mm
06:55 PM 78.0°F25.6°C 67.4°F19.7°C 70% 1.6 mph SW2.6 kmh SW 6.0 mph9.7 kmh 29.88 in1011.9 mb 0.00 in0.0 mm 0.00 in0.0 mm 0.00 in0.0 mm
07:00 PM 78.0°F25.6°C 67.0°F19.4°C 69% 1.7 mph SSW2.7 kmh SSW 6.0 mph9.7 kmh 29.88 in1011.9 mb 0.00 in0.0 mm 0.00 in0.0 mm 0.00 in0.0 mm
07:05 PM 78.2°F25.7°C 67.2°F19.6°C 69% 1.6 mph SW2.6 kmh SW 5.0 mph8.0 kmh 29.88 in1011.9 mb 0.00 in0.0 mm 0.00 in0.0 mm 0.00 in0.0 mm
07:10 PM 78.4°F25.8°C 66.9°F19.4°C 68% 2.3 mph SSW3.7 kmh SSW 4.0 mph6.4 kmh 29.88 in1011.9 mb 0.00 in0.0 mm 0.00 in0.0 mm 0.00 in0.0 mm
07:15 PM 78.6°F25.9°C 67.1°F19.5°C 68% 2.0 mph S3.2 kmh S 5.0 mph8.0 kmh 29.89 in1012.2 mb 0.00 in0.0 mm 0.00 in0.0 mm 0.00 in0.0 mm
07:20 PM 78.6°F25.9°C 66.7°F19.3°C 67% 0.3 mph S0.5 kmh S 5.0 mph8.0 kmh 29.90 in1012.5 mb 0.00 in0.0 mm 0.00 in0.0 mm 0.00 in0.0 mm
07:25 PM 78.7°F25.9°C 66.8°F19.3°C 67% 0.3 mph S0.5 kmh S 2.0 mph3.2 kmh 29.89 in1012.2 mb 0.00 in0.0 mm 0.00 in0.0 mm 0.00 in0.0 mm
07:30 PM 78.4°F25.8°C 66.9°F19.4°C 68% Calm Calm 1.0 mph1.6 kmh 29.89 in1012.2 mb 0.00 in0.0 mm 0.00 in0.0 mm 0.00 in0.0 mm
07:35 PM 78.2°F25.7°C 66.8°F19.3°C 68% Calm Calm -- 29.89 in1012.2 mb 0.00 in0.0 mm 0.00 in0.0 mm 0.00 in0.0 mm
07:40 PM 77.8°F25.4°C 67.2°F19.6°C 70% 0.1 mph S0.2 kmh S 1.0 mph1.6 kmh 29.89 in1012.2 mb 0.00 in0.0 mm 0.00 in0.0 mm 0.00 in0.0 mm
07:45 PM 77.2°F25.1°C 67.0°F19.4°C 71% 0.1 mph S0.2 kmh S 1.0 mph1.6 kmh 29.88 in1011.9 mb 0.00 in0.0 mm 0.00 in0.0 mm 0.00 in0.0 mm
07:50 PM 77.0°F25.0°C 67.3°F19.6°C 72% 0.1 mph S0.2 kmh S 1.0 mph1.6 kmh 29.88 in1011.9 mb 0.00 in0.0 mm 0.00 in0.0 mm 0.00 in0.0 mm
07:55 PM 76.5°F24.7°C 67.2°F19.6°C 73% 0.7 mph SSW1.1 kmh SSW 3.0 mph4.8 kmh 29.88 in1011.9 mb 0.01 in0.3 mm 0.12 in3.0 mm 0.01 in0.3 mm
08:00 PM 75.8°F24.3°C 67.3°F19.6°C 75% 1.1 mph S1.8 kmh S 3.0 mph4.8 kmh 29.86 in1011.2 mb 0.08 in2.0 mm 0.08 in2.0 mm 0.09 in2.3 mm
08:05 PM 74.9°F23.8°C 65.2°F18.4°C 72% 3.8 mph SW6.1 kmh SW 19.0 mph30.6 kmh 29.92 in1013.2 mb 0.28 in7.1 mm 2.40 in61.0 mm 0.28 in7.1 mm
08:10 PM 72.1°F22.3°C 59.7°F15.4°C 65% 5.2 mph NE8.4 kmh NE 19.0 mph30.6 kmh 29.88 in1011.9 mb 0.49 in12.4 mm 2.52 in64.0 mm 0.49 in12.4 mm
08:15 PM 70.6°F21.4°C 60.7°F15.9°C 71% 4.7 mph ENE7.6 kmh ENE 16.0 mph25.7 kmh 29.89 in1012.2 mb 0.59 in15.0 mm 1.20 in30.5 mm 0.59 in15.0 mm
08:20 PM 69.5°F20.8°C 60.8°F16.0°C 74% 4.6 mph NE7.4 kmh NE 11.0 mph17.7 kmh 29.90 in1012.5 mb 0.63 in16.0 mm 0.48 in12.2 mm 0.63 in16.0 mm
08:25 PM 68.2°F20.1°C 60.0°F15.6°C 75% 6.2 mph ENE10.0 kmh ENE 13.0 mph20.9 kmh 29.88 in1011.9 mb 0.80 in20.3 mm 2.04 in51.8 mm 0.80 in20.3 mm
08:30 PM 66.2°F19.0°C 58.4°F14.7°C 76% 10.4 mph NE16.7 kmh NE 21.0 mph33.8 kmh 29.92 in1013.2 mb 0.86 in21.8 mm 0.72 in18.3 mm 0.86 in21.8 mm
08:35 PM 64.7°F18.2°C 58.4°F14.7°C 80% 11.0 mph ENE17.7 kmh ENE 25.0 mph40.2 kmh 29.89 in1012.2 mb 0.94 in23.9 mm 0.96 in24.4 mm 0.94 in23.9 mm
08:40 PM 64.2°F17.9°C 58.6°F14.8°C 82% 10.4 mph NE16.7 kmh NE 25.0 mph40.2 kmh 29.94 in1013.9 mb 0.94 in23.9 mm 0.00 in0.0 mm 0.94 in23.9 mm
08:45 PM 64.0°F17.8°C 58.4°F14.7°C 82% 9.6 mph NE15.4 kmh NE 23.0 mph37.0 kmh 29.95 in1014.2 mb 0.95 in24.1 mm 0.12 in3.0 mm 0.95 in24.1 mm
08:50 PM 63.8°F17.7°C 58.2°F14.6°C 82% 7.5 mph NNE12.1 kmh NNE 20.0 mph32.2 kmh 29.96 in1014.6 mb 0.95 in24.1 mm 0.00 in0.0 mm 0.95 in24.1 mm
08:55 PM 63.6°F17.6°C 58.0°F14.4°C 82% 7.1 mph NE11.4 kmh NE 18.0 mph29.0 kmh 29.96 in1014.6 mb 0.94 in23.9 mm 0.00 in0.0 mm 0.95 in24.1 mm
09:00 PM 63.6°F17.6°C 58.3°F14.6°C 83% 4.5 mph ENE7.2 kmh ENE 13.0 mph20.9 kmh 29.97 in1014.9 mb 0.87 in22.1 mm 0.00 in0.0 mm 0.95 in24.1 mm
09:05 PM 63.6°F17.6°C 58.3°F14.6°C 83% 2.3 mph E3.7 kmh E 11.0 mph17.7 kmh 29.98 in1015.2 mb 0.67 in17.0 mm 0.00 in0.0 mm 0.95 in24.1 mm
09:10 PM 63.5°F17.5°C 58.2°F14.6°C 83% 1.9 mph SE3.1 kmh SE 8.0 mph12.9 kmh 29.99 in1015.6 mb 0.46 in11.7 mm 0.00 in0.0 mm 0.95 in24.1 mm
09:15 PM 63.5°F17.5°C 58.2°F14.6°C 83% 2.4 mph S3.9 kmh S 6.0 mph9.7 kmh 30.00 in1015.9 mb 0.36 in9.1 mm 0.00 in0.0 mm 0.95 in24.1 mm
09:20 PM 63.4°F17.4°C 58.1°F14.5°C 83% 2.4 mph E3.9 kmh E 6.0 mph9.7 kmh 29.98 in1015.2 mb 0.34 in8.6 mm 0.00 in0.0 mm 0.97 in24.6 mm
09:25 PM 63.4°F17.4°C 58.1°F14.5°C 83% 3.0 mph NE4.8 kmh NE 9.0 mph14.5 kmh 29.99 in1015.6 mb 0.17 in4.3 mm 0.00 in0.0 mm 0.97 in24.6 mm
09:30 PM 63.4°F17.4°C 58.1°F14.5°C 83% 2.9 mph ENE4.7 kmh ENE 9.0 mph14.5 kmh 29.97 in1014.9 mb 0.12 in3.0 mm 0.00 in0.0 mm 0.98 in24.9 mm
09:35 PM 63.3°F17.4°C 58.0°F14.4°C 83% 2.4 mph ESE3.9 kmh ESE 6.0 mph9.7 kmh 29.98 in1015.2 mb 0.05 in1.3 mm 0.00 in0.0 mm 0.99 in25.1 mm
09:40 PM 63.2°F17.3°C 58.6°F14.8°C 85% 1.8 mph ESE2.9 kmh ESE 6.0 mph9.7 kmh 29.98 in1015.2 mb 0.07 in1.8 mm 0.24 in6.1 mm 1.01 in25.7 mm
09:45 PM 63.2°F17.3°C 58.9°F14.9°C 86% 0.8 mph ESE1.3 kmh ESE 5.0 mph8.0 kmh 29.98 in1015.2 mb 0.08 in2.0 mm 0.12 in3.0 mm 1.03 in26.2 mm
09:50 PM 63.2°F17.3°C 59.3°F15.2°C 87% 1.4 mph ESE2.3 kmh ESE 3.0 mph4.8 kmh 29.98 in1015.2 mb 0.11 in2.8 mm 0.36 in9.1 mm 1.06 in26.9 mm
09:55 PM 63.3°F17.4°C 59.4°F15.2°C 87% 2.3 mph ENE3.7 kmh ENE 6.0 mph9.7 kmh 29.97 in1014.9 mb 0.18 in4.6 mm 0.84 in21.3 mm 1.13 in28.7 mm
10:00 PM 63.2°F17.3°C 59.6°F15.3°C 88% 2.0 mph E3.2 kmh E 7.0 mph11.3 kmh 29.97 in1014.9 mb 0.22 in5.6 mm 0.04 in1.0 mm 1.17 in29.7 mm
10:05 PM 63.2°F17.3°C 59.6°F15.3°C 88% 1.7 mph SE2.7 kmh SE 7.0 mph11.3 kmh 29.99 in1015.6 mb 0.24 in6.1 mm 0.24 in6.1 mm 1.19 in30.2 mm
10:10 PM 63.3°F17.4°C 60.0°F15.6°C 89% 2.2 mph S3.5 kmh S 7.0 mph11.3 kmh 30.01 in1016.3 mb 0.25 in6.4 mm 0.12 in3.0 mm 1.20 in30.5 mm
10:15 PM 63.3°F17.4°C 60.3°F15.7°C 90% 1.5 mph SE2.4 kmh SE 7.0 mph11.3 kmh 30.00 in1015.9 mb 0.33 in8.4 mm 0.96 in24.4 mm 1.28 in32.5 mm
10:20 PM 63.3°F17.4°C 60.6°F15.9°C 91% 1.8 mph SE2.9 kmh SE 6.0 mph9.7 kmh 30.00 in1015.9 mb 0.43 in10.9 mm 1.20 in30.5 mm 1.40 in35.6 mm
10:25 PM 63.2°F17.3°C 60.5°F15.8°C 91% 1.8 mph SE2.9 kmh SE 4.0 mph6.4 kmh 30.00 in1015.9 mb 0.59 in15.0 mm 1.92 in48.8 mm 1.56 in39.6 mm
10:30 PM 63.0°F17.2°C 60.3°F15.7°C 91% 1.9 mph SE3.1 kmh SE 4.0 mph6.4 kmh 29.99 in1015.6 mb 0.60 in15.2 mm 0.12 in3.0 mm 1.58 in40.1 mm
10:35 PM 62.9°F17.2°C 60.5°F15.8°C 92% 1.9 mph SE3.1 kmh SE 5.0 mph8.0 kmh 29.99 in1015.6 mb 0.59 in15.0 mm 0.00 in0.0 mm 1.58 in40.1 mm
10:40 PM 63.0°F17.2°C 60.6°F15.9°C 92% 2.0 mph SE3.2 kmh SE 5.0 mph8.0 kmh 29.99 in1015.6 mb 0.57 in14.5 mm 0.00 in0.0 mm 1.58 in40.1 mm
10:45 PM 63.2°F17.3°C 60.8°F16.0°C 92% 2.2 mph SE3.5 kmh SE 5.0 mph8.0 kmh 30.00 in1015.9 mb 0.55 in14.0 mm 0.00 in0.0 mm 1.58 in40.1 mm
10:50 PM 63.2°F17.3°C 60.8°F16.0°C 92% 1.9 mph ESE3.1 kmh ESE 7.0 mph11.3 kmh 30.01 in1016.3 mb 0.52 in13.2 mm 0.00 in0.0 mm 1.58 in40.1 mm
10:55 PM 63.2°F17.3°C 60.5°F15.8°C 91% 2.6 mph E4.2 kmh E 8.0 mph12.9 kmh 30.01 in1016.3 mb 0.45 in11.4 mm 0.00 in0.0 mm 1.58 in40.1 mm
11:00 PM 63.3°F17.4°C 60.6°F15.9°C 91% 1.4 mph E2.3 kmh E 8.0 mph12.9 kmh 30.03 in1016.9 mb 0.45 in11.4 mm 0.00 in0.0 mm 1.62 in41.1 mm
11:05 PM 63.3°F17.4°C 60.6°F15.9°C 91% 1.6 mph E2.6 kmh E 6.0 mph9.7 kmh 30.06 in1017.9 mb 0.46 in11.7 mm 0.12 in3.0 mm 1.65 in41.9 mm
11:10 PM 63.2°F17.3°C 60.5°F15.8°C 91% 1.0 mph ENE1.6 kmh ENE 5.0 mph8.0 kmh 30.04 in1017.3 mb 0.53 in13.5 mm 0.84 in21.3 mm 1.73 in43.9 mm
11:15 PM 62.9°F17.2°C 60.2°F15.7°C 91% 1.0 mph ESE1.6 kmh ESE 5.0 mph8.0 kmh 30.01 in1016.3 mb 0.48 in12.2 mm 0.00 in0.0 mm 1.76 in44.7 mm
11:20 PM 62.8°F17.1°C 60.1°F15.6°C 91% 1.0 mph ESE1.6 kmh ESE 5.0 mph8.0 kmh 29.99 in1015.6 mb 0.36 in9.1 mm 0.00 in0.0 mm 1.76 in44.7 mm
11:25 PM 62.5°F16.9°C 59.8°F15.4°C 91% 3.0 mph ESE4.8 kmh ESE 9.0 mph14.5 kmh 29.97 in1014.9 mb 0.21 in5.3 mm 0.00 in0.0 mm 1.77 in45.0 mm
11:30 PM 62.5°F16.9°C 59.8°F15.4°C 91% 3.0 mph ESE4.8 kmh ESE 8.0 mph12.9 kmh 29.98 in1015.2 mb 0.19 in4.8 mm 0.00 in0.0 mm 1.77 in45.0 mm
11:35 PM 62.5°F16.9°C 59.8°F15.4°C 91% 2.0 mph SE3.2 kmh SE 9.0 mph14.5 kmh 30.01 in1016.3 mb 0.19 in4.8 mm 0.00 in0.0 mm 1.77 in45.0 mm
11:40 PM 62.6°F17.0°C 59.9°F15.5°C 91% 4.0 mph NNW6.4 kmh NNW 8.0 mph12.9 kmh 30.04 in1017.3 mb 0.19 in4.8 mm 0.00 in0.0 mm 1.77 in45.0 mm
11:45 PM 62.7°F17.1°C 60.0°F15.6°C 91% 3.6 mph NE5.8 kmh NE 9.0 mph14.5 kmh 30.04 in1017.3 mb 0.29 in7.4 mm 1.20 in30.5 mm 1.87 in47.5 mm
11:50 PM 62.5°F16.9°C 59.8°F15.4°C 91% 2.2 mph E3.5 kmh E 9.0 mph14.5 kmh 30.02 in1016.6 mb 0.44 in11.2 mm 1.80 in45.7 mm 2.02 in51.3 mm
11:55 PM 62.3°F16.8°C 59.6°F15.3°C 91% 1.3 mph SE2.1 kmh SE 8.0 mph12.9 kmh 30.04 in1017.3 mb 0.49 in12.4 mm 0.60 in15.2 mm 2.07 in52.6 mm